createdAt,value
2018-09-09T00:02:20.193Z,99.90
2018-09-09T00:04:49.218Z,99.90
2018-09-09T00:07:18.906Z,99.90
2018-09-09T00:09:49.109Z,99.90
2018-09-09T00:12:18.881Z,99.90
2018-09-09T00:14:48.469Z,99.90
2018-09-09T00:17:17.756Z,99.90
2018-09-09T00:19:47.059Z,99.90
2018-09-09T00:22:16.177Z,99.90
2018-09-09T00:24:45.444Z,99.90
2018-09-09T00:27:15.193Z,99.90
2018-09-09T00:29:44.419Z,99.90
2018-09-09T00:32:13.496Z,99.90
2018-09-09T00:34:43.569Z,99.90
2018-09-09T00:37:12.762Z,99.90
2018-09-09T00:39:41.797Z,99.90
2018-09-09T00:42:11.061Z,99.90
2018-09-09T00:44:42.668Z,99.90
2018-09-09T00:47:12.498Z,99.90
2018-09-09T00:49:48.193Z,99.90
2018-09-09T00:52:24.341Z,99.90
2018-09-09T00:54:55.736Z,99.90
2018-09-09T00:57:26.437Z,99.90
2018-09-09T00:59:55.692Z,99.90
2018-09-09T01:02:24.911Z,99.90
2018-09-09T01:04:53.993Z,99.90
2018-09-09T01:07:23.050Z,99.90
2018-09-09T01:09:52.289Z,99.90
2018-09-09T01:12:21.779Z,99.90
2018-09-09T01:14:50.917Z,99.90
2018-09-09T01:17:20.175Z,99.90
2018-09-09T01:19:50.499Z,99.90
2018-09-09T01:22:20.290Z,99.90
2018-09-09T01:24:49.375Z,99.90
2018-09-09T01:27:18.799Z,99.90
2018-09-09T01:29:47.897Z,99.90
2018-09-09T01:32:17.164Z,99.90
2018-09-09T01:34:46.560Z,99.90
2018-09-09T01:37:15.763Z,99.90
2018-09-09T01:39:44.935Z,99.90
2018-09-09T01:42:14.077Z,99.90
2018-09-09T01:44:43.941Z,99.90
2018-09-09T01:47:13.174Z,99.90
2018-09-09T01:49:42.893Z,99.90
2018-09-09T01:52:12.072Z,99.90
2018-09-09T01:54:41.255Z,99.90
2018-09-09T01:57:10.324Z,99.90
2018-09-09T01:59:40.396Z,99.90
2018-09-09T02:02:15.952Z,99.90
2018-09-09T02:04:45.226Z,99.90
2018-09-09T02:07:14.899Z,99.90
2018-09-09T02:09:44.994Z,99.90
2018-09-09T02:12:14.340Z,99.90
2018-09-09T02:14:43.525Z,99.90
2018-09-09T02:17:12.815Z,99.90
2018-09-09T02:19:43.212Z,99.90
2018-09-09T02:22:12.408Z,99.90
2018-09-09T02:24:41.887Z,99.90
2018-09-09T02:27:11.530Z,99.90
2018-09-09T02:29:40.784Z,99.90
2018-09-09T02:32:10.020Z,99.90
2018-09-09T02:34:39.183Z,99.90
2018-09-09T02:37:09.067Z,99.90
2018-09-09T02:39:38.289Z,99.90
2018-09-09T02:42:07.460Z,99.90
2018-09-09T02:44:36.610Z,99.90
2018-09-09T02:47:05.776Z,99.90
2018-09-09T02:49:35.539Z,99.90
2018-09-09T02:52:05.296Z,99.90
2018-09-09T02:54:34.650Z,99.90
2018-09-09T02:57:04.964Z,99.90
2018-09-09T02:59:34.631Z,99.90
2018-09-09T03:02:03.944Z,99.90
2018-09-09T03:04:33.092Z,99.90
2018-09-09T03:07:02.348Z,99.90
2018-09-09T03:09:31.647Z,99.90
2018-09-09T03:12:00.805Z,99.90
2018-09-09T03:14:30.066Z,99.90
2018-09-09T03:17:00.451Z,99.90
2018-09-09T03:19:29.874Z,99.90
2018-09-09T03:21:59.174Z,99.90
2018-09-09T03:24:28.669Z,99.90
2018-09-09T03:26:57.798Z,99.90
2018-09-09T03:29:27.026Z,99.90
2018-09-09T03:31:56.167Z,99.90
2018-09-09T03:34:25.449Z,99.90
2018-09-09T03:36:54.537Z,99.90
2018-09-09T03:39:23.948Z,99.90
2018-09-09T03:41:53.138Z,99.90
2018-09-09T03:44:22.337Z,99.90
2018-09-09T03:46:51.635Z,99.90
2018-09-09T03:49:20.782Z,99.90
2018-09-09T03:51:50.115Z,99.90
2018-09-09T03:54:19.248Z,99.90
2018-09-09T03:56:48.863Z,99.90
2018-09-09T03:59:18.052Z,99.90
2018-09-09T04:01:47.243Z,99.90
2018-09-09T04:04:16.452Z,99.90
2018-09-09T04:06:45.743Z,99.90
2018-09-09T04:09:14.825Z,99.90
2018-09-09T04:11:44.182Z,99.90
2018-09-09T04:14:13.334Z,99.90
2018-09-09T04:16:42.553Z,99.90
2018-09-09T04:19:11.854Z,99.90
2018-09-09T04:21:50.707Z,99.90
2018-09-09T04:24:21.411Z,99.90
2018-09-09T04:26:50.811Z,99.90
2018-09-09T04:29:20.190Z,99.90
2018-09-09T04:31:49.277Z,99.90
2018-09-09T04:34:18.510Z,99.90
2018-09-09T04:36:47.709Z,99.90
2018-09-09T04:39:16.904Z,99.90
2018-09-09T04:41:46.825Z,99.90
2018-09-09T04:44:16.119Z,99.90
2018-09-09T04:46:45.160Z,99.90
2018-09-09T04:49:14.195Z,99.90
2018-09-09T04:51:43.410Z,99.90
2018-09-09T04:54:14.056Z,99.90
2018-09-09T04:56:43.243Z,99.90
2018-09-09T04:59:13.041Z,99.90
2018-09-09T05:01:42.325Z,99.90
2018-09-09T05:04:11.447Z,99.90
2018-09-09T05:06:40.755Z,99.90
2018-09-09T05:09:10.221Z,99.90
2018-09-09T05:11:39.552Z,99.90
2018-09-09T05:14:09.077Z,99.90
2018-09-09T05:16:38.168Z,99.90
2018-09-09T05:19:07.268Z,99.90
2018-09-09T05:21:36.365Z,99.90
2018-09-09T05:24:05.473Z,99.90
2018-09-09T05:26:34.562Z,99.90
2018-09-09T05:29:03.677Z,99.90
2018-09-09T05:31:33.984Z,99.90
2018-09-09T05:34:03.180Z,99.90
2018-09-09T05:36:32.404Z,99.90
2018-09-09T05:39:02.432Z,99.90
2018-09-09T05:41:31.867Z,99.90
2018-09-09T05:44:01.317Z,99.90
2018-09-09T05:46:30.496Z,99.90
2018-09-09T05:49:00.280Z,99.90
2018-09-09T05:51:29.379Z,99.90
2018-09-09T05:53:58.563Z,99.90
2018-09-09T05:56:27.808Z,99.90
2018-09-09T05:58:56.963Z,99.90
2018-09-09T06:01:26.222Z,99.90
2018-09-09T06:03:55.478Z,99.90
2018-09-09T06:06:24.794Z,99.90
2018-09-09T06:08:54.327Z,99.90
2018-09-09T06:11:23.723Z,99.90
2018-09-09T06:13:53.497Z,99.90
2018-09-09T06:16:22.655Z,99.90
2018-09-09T06:18:52.873Z,99.90
2018-09-09T06:21:22.617Z,99.90
2018-09-09T06:23:52.140Z,99.90
2018-09-09T06:26:21.383Z,99.90
2018-09-09T06:28:50.588Z,99.90
2018-09-09T06:31:19.767Z,99.90
2018-09-09T06:33:49.127Z,99.90
2018-09-09T06:36:18.513Z,99.90
2018-09-09T06:38:47.716Z,99.90
2018-09-09T06:41:17.925Z,99.90
2018-09-09T06:43:47.108Z,99.90
2018-09-09T06:46:16.487Z,99.90
2018-09-09T06:48:45.796Z,99.90
2018-09-09T06:51:15.004Z,99.90
2018-09-09T06:53:44.265Z,99.90
2018-09-09T06:56:15.118Z,99.90
2018-09-09T06:58:44.375Z,99.90
2018-09-09T07:01:14.640Z,99.90
2018-09-09T07:03:44.073Z,99.90
2018-09-09T07:06:13.226Z,99.90
2018-09-09T07:08:42.710Z,99.90
2018-09-09T07:11:12.937Z,99.90
2018-09-09T07:13:42.857Z,99.90
2018-09-09T07:16:12.051Z,99.90
2018-09-09T07:18:41.351Z,99.90
2018-09-09T07:21:10.818Z,99.90
2018-09-09T07:23:39.951Z,99.90
2018-09-09T07:26:09.792Z,99.90
2018-09-09T07:28:38.946Z,99.90
2018-09-09T07:31:08.327Z,99.90
2018-09-09T07:33:37.466Z,99.90
2018-09-09T07:36:06.657Z,99.90
2018-09-09T07:38:35.849Z,99.90
2018-09-09T07:41:05.010Z,99.90
2018-09-09T07:43:34.429Z,99.90
2018-09-09T07:46:03.776Z,99.90
2018-09-09T07:48:32.846Z,99.90
2018-09-09T07:51:02.048Z,99.90
2018-09-09T07:53:31.179Z,99.90
2018-09-09T07:56:00.349Z,99.90
2018-09-09T07:58:29.581Z,99.90
2018-09-09T08:00:59.006Z,99.90
2018-09-09T08:03:28.565Z,99.90
2018-09-09T08:05:58.906Z,99.90
2018-09-09T08:08:28.236Z,99.90
2018-09-09T08:10:57.620Z,99.90
2018-09-09T08:13:26.925Z,99.90
2018-09-09T08:15:56.143Z,99.90
2018-09-09T08:18:26.570Z,99.90
2018-09-09T08:20:55.737Z,99.90
2018-09-09T08:23:24.970Z,99.90
2018-09-09T08:25:54.280Z,99.90
2018-09-09T08:28:25.376Z,99.90
2018-09-09T08:30:54.605Z,99.90
2018-09-09T08:33:24.073Z,99.90
2018-09-09T08:35:53.373Z,99.90
2018-09-09T08:38:22.877Z,99.90
2018-09-09T08:40:52.163Z,99.90
2018-09-09T08:43:21.381Z,99.90
2018-09-09T08:45:51.585Z,99.90
2018-09-09T08:48:20.853Z,99.90
2018-09-09T08:50:50.114Z,99.90
2018-09-09T08:53:20.714Z,99.90
2018-09-09T08:55:50.253Z,99.90
2018-09-09T08:58:19.613Z,99.90
2018-09-09T09:00:49.057Z,99.90
2018-09-09T09:03:18.284Z,99.90
2018-09-09T09:05:47.826Z,99.90
2018-09-09T09:08:17.102Z,99.90
2018-09-09T09:10:46.433Z,99.90
2018-09-09T09:13:15.635Z,99.90
2018-09-09T09:15:45.154Z,99.90
2018-09-09T09:18:14.317Z,99.90
2018-09-09T09:20:43.409Z,99.90
2018-09-09T09:23:12.512Z,99.90
2018-09-09T09:25:47.010Z,99.90
2018-09-09T09:28:16.161Z,99.90
2018-09-09T09:30:45.364Z,99.80
2018-09-09T09:33:15.224Z,99.60
2018-09-09T09:35:50.549Z,99.10
2018-09-09T09:38:22.176Z,99.20
2018-09-09T09:40:53.206Z,99.50
2018-09-09T09:43:22.280Z,99.40
2018-09-09T09:45:51.608Z,99.00
2018-09-09T09:48:21.028Z,98.10
2018-09-09T09:50:50.756Z,98.20
2018-09-09T09:53:20.018Z,99.40
2018-09-09T09:55:49.003Z,99.10
2018-09-09T09:58:18.140Z,99.30
2018-09-09T10:00:52.632Z,98.50
2018-09-09T10:03:21.826Z,98.60
2018-09-09T10:05:51.398Z,98.50
2018-09-09T10:08:21.452Z,97.70
2018-09-09T10:10:50.695Z,96.90
2018-09-09T10:13:19.905Z,95.90
2018-09-09T10:15:49.275Z,94.90
2018-09-09T10:18:18.520Z,94.60
2018-09-09T10:20:47.654Z,94.70
2018-09-09T10:23:17.278Z,94.50
2018-09-09T10:25:46.698Z,94.00
2018-09-09T10:28:15.808Z,93.80
2018-09-09T10:30:45.271Z,93.80
2018-09-09T10:33:14.416Z,93.80
2018-09-09T10:35:43.881Z,93.50
2018-09-09T10:38:13.053Z,92.40
2018-09-09T10:40:42.282Z,92.40
2018-09-09T10:43:11.590Z,92.10
2018-09-09T10:45:40.974Z,91.70
2018-09-09T10:48:10.390Z,91.60
2018-09-09T10:50:40.178Z,91.20
2018-09-09T10:53:11.207Z,90.70
2018-09-09T10:55:40.310Z,90.50
2018-09-09T10:58:10.289Z,90.70
2018-09-09T11:00:39.561Z,90.70
2018-09-09T11:03:08.619Z,89.30
2018-09-09T11:05:37.736Z,90.10
2018-09-09T11:08:06.882Z,90.80
2018-09-09T11:10:36.405Z,91.00
2018-09-09T11:13:05.661Z,90.10
2018-09-09T11:15:35.186Z,90.20
2018-09-09T11:18:04.486Z,88.70
2018-09-09T11:20:33.653Z,89.70
2018-09-09T11:23:02.774Z,89.20
2018-09-09T11:25:32.115Z,87.60
2018-09-09T11:28:01.685Z,88.20
2018-09-09T11:30:31.596Z,88.90
2018-09-09T11:33:00.848Z,89.70
2018-09-09T11:35:30.103Z,89.10
2018-09-09T11:37:59.246Z,85.40
2018-09-09T11:40:28.401Z,86.40
2018-09-09T11:42:58.420Z,85.50
2018-09-09T11:45:28.970Z,85.80
2018-09-09T11:47:59.103Z,86.90
2018-09-09T11:50:28.371Z,88.10
2018-09-09T11:52:57.692Z,87.90
2018-09-09T11:55:26.956Z,86.90
2018-09-09T11:57:57.286Z,86.40
2018-09-09T12:00:26.735Z,87.10
2018-09-09T12:02:55.862Z,85.80
2018-09-09T12:05:25.468Z,86.00
2018-09-09T12:07:54.697Z,85.60
2018-09-09T12:10:24.017Z,85.40
2018-09-09T12:12:53.213Z,86.40
2018-09-09T12:15:22.460Z,85.60
2018-09-09T12:17:51.646Z,86.00
2018-09-09T12:20:20.950Z,85.70
2018-09-09T12:22:50.074Z,85.10
2018-09-09T12:25:19.304Z,84.90
2018-09-09T12:27:51.291Z,82.40
2018-09-09T12:30:20.724Z,81.60
2018-09-09T12:32:49.828Z,81.50
2018-09-09T12:35:19.221Z,79.60
2018-09-09T12:37:49.617Z,79.30
2018-09-09T12:40:19.951Z,80.80
2018-09-09T12:42:57.219Z,80.70
2018-09-09T12:45:31.764Z,79.30
2018-09-09T12:48:06.452Z,79.60
2018-09-09T12:50:35.911Z,80.90
2018-09-09T12:53:05.229Z,80.90
2018-09-09T12:55:34.344Z,81.50
2018-09-09T12:58:03.711Z,80.20
2018-09-09T13:00:33.388Z,80.20
2018-09-09T13:03:02.519Z,79.80
2018-09-09T13:05:31.930Z,79.70
2018-09-09T13:08:01.204Z,79.60
2018-09-09T13:10:30.468Z,78.80
2018-09-09T13:13:04.950Z,80.20
2018-09-09T13:15:34.028Z,79.90
2018-09-09T13:18:03.293Z,80.40
2018-09-09T13:20:33.638Z,79.70
2018-09-09T13:23:02.767Z,77.70
2018-09-09T13:25:32.326Z,78.20
2018-09-09T13:28:03.161Z,78.50
2018-09-09T13:30:32.628Z,79.50
2018-09-09T13:33:01.889Z,78.80
2018-09-09T13:35:31.065Z,80.60
2018-09-09T13:38:00.204Z,80.60
2018-09-09T13:40:29.356Z,81.40
2018-09-09T13:42:58.537Z,82.40
2018-09-09T13:45:27.661Z,82.90
2018-09-09T13:47:57.008Z,83.30
2018-09-09T13:50:27.032Z,83.00
2018-09-09T13:52:56.480Z,84.00
2018-09-09T13:55:26.489Z,84.80
2018-09-09T13:57:55.803Z,83.90
2018-09-09T14:00:25.362Z,84.70
2018-09-09T14:02:54.926Z,85.70
2018-09-09T14:05:25.320Z,85.00
2018-09-09T14:07:54.554Z,84.60
2018-09-09T14:10:23.710Z,84.40
2018-09-09T14:12:53.670Z,83.80
2018-09-09T14:15:22.953Z,83.60
2018-09-09T14:17:52.205Z,83.40
2018-09-09T14:20:21.709Z,82.70
2018-09-09T14:22:50.932Z,81.20
2018-09-09T14:25:20.138Z,81.30
2018-09-09T14:27:49.322Z,79.60
2018-09-09T14:30:18.511Z,80.00
2018-09-09T14:32:49.103Z,81.00
2018-09-09T14:35:18.168Z,78.80
2018-09-09T14:37:47.238Z,79.40
2018-09-09T14:40:16.736Z,79.80
2018-09-09T14:42:46.145Z,81.30
2018-09-09T14:45:15.522Z,80.80
2018-09-09T14:47:44.804Z,82.00
2018-09-09T14:50:13.922Z,82.50
2018-09-09T14:52:43.499Z,83.10
2018-09-09T14:55:12.580Z,82.60
2018-09-09T14:57:41.951Z,82.60
2018-09-09T15:00:13.398Z,80.20
2018-09-09T15:02:42.758Z,80.40
2018-09-09T15:05:12.651Z,80.00
2018-09-09T15:07:41.947Z,78.90
2018-09-09T15:10:12.734Z,79.10
2018-09-09T15:12:42.219Z,79.60
2018-09-09T15:15:11.302Z,79.00
2018-09-09T15:17:40.680Z,78.20
2018-09-09T15:20:09.884Z,77.90
2018-09-09T15:22:39.099Z,78.30
2018-09-09T15:25:08.343Z,77.80
2018-09-09T15:27:37.467Z,78.40
2018-09-09T15:30:06.771Z,78.50
2018-09-09T15:32:36.101Z,78.60
2018-09-09T15:35:05.426Z,76.90
2018-09-09T15:37:35.303Z,76.40
2018-09-09T15:40:04.600Z,74.90
2018-09-09T15:42:33.820Z,73.60
2018-09-09T15:45:03.711Z,73.50
2018-09-09T15:47:32.937Z,74.50
2018-09-09T15:50:02.156Z,73.70
2018-09-09T15:52:31.340Z,74.40
2018-09-09T15:55:00.600Z,75.40
2018-09-09T15:57:29.701Z,76.20
2018-09-09T15:59:58.999Z,74.10
2018-09-09T16:02:28.250Z,72.40
2018-09-09T16:04:57.516Z,71.30
2018-09-09T16:07:26.753Z,71.80
2018-09-09T16:09:55.835Z,72.70
2018-09-09T16:12:25.113Z,71.00
2018-09-09T16:14:54.309Z,69.20
2018-09-09T16:17:23.746Z,68.10
2018-09-09T16:19:52.875Z,67.30
2018-09-09T16:22:25.066Z,67.80
2018-09-09T16:24:54.828Z,68.40
2018-09-09T16:27:24.115Z,67.70
2018-09-09T16:29:53.336Z,67.40
2018-09-09T16:32:22.460Z,67.80
2018-09-09T16:34:52.422Z,68.80
2018-09-09T16:37:21.583Z,70.60
2018-09-09T16:39:50.838Z,71.10
2018-09-09T16:42:21.001Z,71.50
2018-09-09T16:44:50.177Z,73.00
2018-09-09T16:47:20.034Z,73.80
2018-09-09T16:49:49.349Z,73.80
2018-09-09T16:52:18.460Z,73.50
2018-09-09T16:54:48.268Z,74.30
2018-09-09T16:57:17.437Z,75.60
2018-09-09T16:59:46.639Z,75.60
2018-09-09T17:02:15.859Z,75.60
2018-09-09T17:04:45.053Z,75.20
2018-09-09T17:07:14.222Z,74.00
2018-09-09T17:09:43.372Z,71.80
2018-09-09T17:12:13.432Z,70.50
2018-09-09T17:14:42.872Z,68.40
2018-09-09T17:17:12.154Z,67.50
2018-09-09T17:19:41.341Z,67.60
2018-09-09T17:22:10.564Z,68.80
2018-09-09T17:24:39.788Z,69.70
2018-09-09T17:27:09.042Z,71.50
2018-09-09T17:29:38.220Z,72.90
2018-09-09T17:32:07.740Z,74.90
2018-09-09T17:34:36.847Z,75.70
2018-09-09T17:37:06.091Z,77.10
2018-09-09T17:39:35.439Z,78.20
2018-09-09T17:42:04.712Z,79.50
2018-09-09T17:44:33.908Z,80.60
2018-09-09T17:47:03.927Z,81.30
2018-09-09T17:49:33.152Z,83.10
2018-09-09T17:52:02.374Z,84.10
2018-09-09T17:54:31.565Z,85.50
2018-09-09T17:57:01.387Z,87.00
2018-09-09T17:59:30.505Z,87.30
2018-09-09T18:02:02.730Z,87.30
2018-09-09T18:04:31.934Z,87.90
2018-09-09T18:07:01.109Z,88.70
2018-09-09T18:09:30.345Z,89.90
2018-09-09T18:12:00.002Z,90.00
2018-09-09T18:14:29.730Z,91.00
2018-09-09T18:16:58.855Z,91.30
2018-09-09T18:19:28.143Z,91.70
2018-09-09T18:21:57.320Z,92.20
2018-09-09T18:24:27.076Z,92.50
2018-09-09T18:26:56.484Z,92.80
2018-09-09T18:29:25.745Z,93.00
2018-09-09T18:31:54.974Z,93.90
2018-09-09T18:34:24.217Z,94.10
2018-09-09T18:36:53.649Z,94.50
2018-09-09T18:39:23.078Z,94.70
2018-09-09T18:41:52.988Z,94.90
2018-09-09T18:44:22.104Z,95.00
2018-09-09T18:46:51.236Z,95.10
2018-09-09T18:49:20.512Z,95.50
2018-09-09T18:51:49.718Z,95.20
2018-09-09T18:54:19.192Z,95.60
2018-09-09T18:56:48.485Z,96.00
2018-09-09T18:59:17.905Z,96.50
2018-09-09T19:01:47.037Z,96.60
2018-09-09T19:04:16.601Z,96.70
2018-09-09T19:06:45.813Z,97.10
2018-09-09T19:09:14.983Z,97.30
2018-09-09T19:11:44.185Z,97.50
2018-09-09T19:14:13.576Z,97.80
2018-09-09T19:16:42.833Z,98.10
2018-09-09T19:19:12.132Z,98.50
2018-09-09T19:21:41.575Z,98.90
2018-09-09T19:24:10.635Z,99.20
2018-09-09T19:26:39.728Z,99.10
2018-09-09T19:29:09.609Z,99.00
2018-09-09T19:31:39.025Z,99.40
2018-09-09T19:34:08.210Z,99.70
2018-09-09T19:36:38.051Z,99.90
2018-09-09T19:39:09.304Z,99.90
2018-09-09T19:41:38.565Z,99.90
2018-09-09T19:44:08.336Z,99.90
2018-09-09T19:46:37.584Z,99.90
2018-09-09T19:49:07.198Z,99.90
2018-09-09T19:51:37.007Z,99.90
2018-09-09T19:54:08.346Z,99.90
2018-09-09T19:56:37.427Z,99.90
2018-09-09T19:59:06.567Z,99.90
2018-09-09T20:01:35.969Z,99.90
2018-09-09T20:04:05.226Z,99.90
2018-09-09T20:06:34.518Z,99.90
2018-09-09T20:09:04.589Z,99.90
2018-09-09T20:11:33.952Z,99.90
2018-09-09T20:14:03.153Z,99.90
2018-09-09T20:16:32.534Z,99.90
2018-09-09T20:19:01.894Z,99.90
2018-09-09T20:21:31.266Z,99.90
2018-09-09T20:24:01.651Z,99.90
2018-09-09T20:26:30.732Z,99.90
2018-09-09T20:29:00.037Z,99.90
2018-09-09T20:31:29.187Z,99.90
2018-09-09T20:33:59.158Z,99.90
2018-09-09T20:36:28.899Z,99.90
2018-09-09T20:38:58.095Z,99.90
2018-09-09T20:41:27.199Z,99.90
2018-09-09T20:43:56.715Z,99.90
2018-09-09T20:46:26.126Z,99.90
2018-09-09T20:48:55.620Z,99.90
2018-09-09T20:51:24.889Z,99.90
2018-09-09T20:53:54.286Z,99.90
2018-09-09T20:56:23.966Z,99.90
2018-09-09T20:58:53.522Z,99.90
2018-09-09T21:01:22.809Z,99.90
2018-09-09T21:03:51.938Z,99.90
2018-09-09T21:06:21.136Z,99.90
2018-09-09T21:08:50.284Z,99.90
2018-09-09T21:11:19.946Z,99.90
2018-09-09T21:13:49.218Z,99.90
2018-09-09T21:16:18.337Z,99.90
2018-09-09T21:18:47.550Z,99.90
2018-09-09T21:21:17.609Z,99.90
2018-09-09T21:23:46.661Z,99.90
2018-09-09T21:26:16.407Z,99.90
2018-09-09T21:28:46.125Z,99.90
2018-09-09T21:31:15.426Z,99.90
2018-09-09T21:33:44.651Z,99.90
2018-09-09T21:36:13.787Z,99.90
2018-09-09T21:38:43.541Z,99.90
2018-09-09T21:41:13.171Z,99.90
2018-09-09T21:43:42.602Z,99.90
2018-09-09T21:46:11.812Z,99.90
2018-09-09T21:48:40.880Z,99.90
2018-09-09T21:51:09.985Z,99.90
2018-09-09T21:53:39.160Z,99.90
2018-09-09T21:56:08.330Z,99.90
2018-09-09T21:58:37.759Z,99.90
2018-09-09T22:01:12.212Z,99.90
2018-09-09T22:03:41.728Z,99.90
2018-09-09T22:06:10.821Z,99.90
2018-09-09T22:08:39.856Z,99.90
2018-09-09T22:11:09.189Z,99.90
2018-09-09T22:13:38.395Z,99.90
2018-09-09T22:16:07.546Z,99.90
2018-09-09T22:18:36.713Z,99.90
2018-09-09T22:21:06.232Z,99.90
2018-09-09T22:23:35.788Z,99.90
2018-09-09T22:26:04.985Z,99.90
2018-09-09T22:28:34.296Z,99.90
2018-09-09T22:31:03.694Z,99.90
2018-09-09T22:33:32.911Z,99.90
2018-09-09T22:36:02.050Z,99.90
2018-09-09T22:38:31.150Z,99.90
2018-09-09T22:41:00.571Z,99.90
2018-09-09T22:43:29.744Z,99.90
2018-09-09T22:46:00.157Z,99.90
2018-09-09T22:48:29.602Z,99.90
2018-09-09T22:50:59.000Z,99.90
2018-09-09T22:53:28.496Z,99.90
2018-09-09T22:55:57.805Z,99.90
2018-09-09T22:58:26.951Z,99.90
2018-09-09T23:00:56.290Z,99.90
2018-09-09T23:03:26.556Z,99.90
2018-09-09T23:05:55.687Z,99.90
2018-09-09T23:08:24.816Z,99.90
2018-09-09T23:10:55.069Z,99.90
2018-09-09T23:13:24.223Z,99.90
2018-09-09T23:15:53.352Z,99.90
2018-09-09T23:18:22.466Z,99.90
2018-09-09T23:20:51.879Z,99.90
2018-09-09T23:23:21.053Z,99.90
2018-09-09T23:25:50.316Z,99.90
2018-09-09T23:28:19.572Z,99.90
2018-09-09T23:30:48.837Z,99.90
2018-09-09T23:33:17.894Z,99.90
2018-09-09T23:35:47.065Z,99.90
2018-09-09T23:38:17.466Z,99.90
2018-09-09T23:40:46.580Z,99.90
2018-09-09T23:43:15.743Z,99.90
2018-09-09T23:45:45.155Z,99.90
2018-09-09T23:48:15.604Z,99.90
2018-09-09T23:50:46.168Z,99.90
2018-09-09T23:53:15.202Z,99.90
2018-09-09T23:55:44.858Z,99.90
2018-09-09T23:58:14.056Z,99.90
